sensor_id;sensor_type;location;lat;lon;timestamp;temperature;humidity
73576;DHT22;61859;49.204;8.140;2022-09-16T00:00:18;14.60;91.40
73576;DHT22;61859;49.204;8.140;2022-09-16T00:02:44;14.60;91.90
73576;DHT22;61859;49.204;8.140;2022-09-16T00:05:09;14.60;92.20
73576;DHT22;61859;49.204;8.140;2022-09-16T00:07:35;14.50;92.40
73576;DHT22;61859;49.204;8.140;2022-09-16T00:10:01;14.60;92.50
73576;DHT22;61859;49.204;8.140;2022-09-16T00:12:27;14.60;92.60
73576;DHT22;61859;49.204;8.140;2022-09-16T00:14:53;14.60;92.90
73576;DHT22;61859;49.204;8.140;2022-09-16T00:17:19;14.60;92.90
73576;DHT22;61859;49.204;8.140;2022-09-16T00:19:45;14.60;92.90
73576;DHT22;61859;49.204;8.140;2022-09-16T00:22:10;14.70;92.80
73576;DHT22;61859;49.204;8.140;2022-09-16T00:24:36;14.70;92.60
73576;DHT22;61859;49.204;8.140;2022-09-16T00:27:02;14.70;91.80
73576;DHT22;61859;49.204;8.140;2022-09-16T00:29:28;14.70;91.50
73576;DHT22;61859;49.204;8.140;2022-09-16T00:31:53;14.80;91.30
73576;DHT22;61859;49.204;8.140;2022-09-16T00:34:19;14.80;90.60
73576;DHT22;61859;49.204;8.140;2022-09-16T00:36:44;14.80;90.30
73576;DHT22;61859;49.204;8.140;2022-09-16T00:39:10;14.80;89.40
73576;DHT22;61859;49.204;8.140;2022-09-16T00:41:35;14.80;89.30
73576;DHT22;61859;49.204;8.140;2022-09-16T00:44:49;14.90;88.90
73576;DHT22;61859;49.204;8.140;2022-09-16T00:46:49;14.90;88.80
73576;DHT22;61859;49.204;8.140;2022-09-16T00:49:27;14.80;89.50
73576;DHT22;61859;49.204;8.140;2022-09-16T00:51:58;14.80;89.70
73576;DHT22;61859;49.204;8.140;2022-09-16T00:54:24;14.80;89.70
73576;DHT22;61859;49.204;8.140;2022-09-16T00:56:54;14.60;90.10
73576;DHT22;61859;49.204;8.140;2022-09-16T00:59:42;14.60;90.40
73576;DHT22;61859;49.204;8.140;2022-09-16T01:02:13;14.50;90.80
73576;DHT22;61859;49.204;8.140;2022-09-16T01:04:50;14.50;90.90
73576;DHT22;61859;49.204;8.140;2022-09-16T01:07:25;14.40;91.30
73576;DHT22;61859;49.204;8.140;2022-09-16T01:09:52;14.30;91.40
73576;DHT22;61859;49.204;8.140;2022-09-16T01:12:18;14.20;91.90
73576;DHT22;61859;49.204;8.140;2022-09-16T01:14:43;14.10;92.10
73576;DHT22;61859;49.204;8.140;2022-09-16T01:31:23;14.10;93.90
73576;DHT22;61859;49.204;8.140;2022-09-16T01:34:02;14.20;93.80
73576;DHT22;61859;49.204;8.140;2022-09-16T01:36:48;14.20;93.70
73576;DHT22;61859;49.204;8.140;2022-09-16T01:42:03;14.10;93.70
73576;DHT22;61859;49.204;8.140;2022-09-16T01:48:02;14.10;93.60
73576;DHT22;61859;49.204;8.140;2022-09-16T01:50:52;14.10;93.50
73576;DHT22;61859;49.204;8.140;2022-09-16T01:53:21;14.20;93.40
73576;DHT22;61859;49.204;8.140;2022-09-16T01:58:27;14.30;93.30
73576;DHT22;61859;49.204;8.140;2022-09-16T02:01:01;14.30;93.30
73576;DHT22;61859;49.204;8.140;2022-09-16T02:03:31;14.30;93.00
73576;DHT22;61859;49.204;8.140;2022-09-16T02:06:02;14.40;92.00
73576;DHT22;61859;49.204;8.140;2022-09-16T02:08:43;14.40;92.10
73576;DHT22;61859;49.204;8.140;2022-09-16T02:11:13;14.50;92.20
73576;DHT22;61859;49.204;8.140;2022-09-16T02:14:12;14.40;92.40
73576;DHT22;61859;49.204;8.140;2022-09-16T02:16:44;14.40;91.80
73576;DHT22;61859;49.204;8.140;2022-09-16T02:19:15;14.40;90.80
73576;DHT22;61859;49.204;8.140;2022-09-16T02:21:44;14.40;90.90
73576;DHT22;61859;49.204;8.140;2022-09-16T02:24:16;14.40;90.30
73576;DHT22;61859;49.204;8.140;2022-09-16T02:26:47;14.50;89.80
73576;DHT22;61859;49.204;8.140;2022-09-16T02:29:16;14.50;89.80
73576;DHT22;61859;49.204;8.140;2022-09-16T02:31:43;14.50;89.80
73576;DHT22;61859;49.204;8.140;2022-09-16T02:34:14;14.50;90.10
73576;DHT22;61859;49.204;8.140;2022-09-16T02:36:44;14.50;90.60
73576;DHT22;61859;49.204;8.140;2022-09-16T02:39:15;14.50;90.70
73576;DHT22;61859;49.204;8.140;2022-09-16T02:41:43;14.50;90.80
73576;DHT22;61859;49.204;8.140;2022-09-16T02:44:09;14.50;91.00
73576;DHT22;61859;49.204;8.140;2022-09-16T02:46:54;14.50;90.60
73576;DHT22;61859;49.204;8.140;2022-09-16T02:56:55;14.60;91.10
73576;DHT22;61859;49.204;8.140;2022-09-16T02:59:22;14.60;91.30
73576;DHT22;61859;49.204;8.140;2022-09-16T03:01:48;14.60;91.70
73576;DHT22;61859;49.204;8.140;2022-09-16T03:04:16;14.50;91.20
73576;DHT22;61859;49.204;8.140;2022-09-16T03:06:42;14.60;90.20
73576;DHT22;61859;49.204;8.140;2022-09-16T03:09:10;14.60;90.10
73576;DHT22;61859;49.204;8.140;2022-09-16T03:30:12;14.50;90.10
73576;DHT22;61859;49.204;8.140;2022-09-16T03:35:15;14.50;90.70
73576;DHT22;61859;49.204;8.140;2022-09-16T03:37:44;14.50;90.90
73576;DHT22;61859;49.204;8.140;2022-09-16T03:40:13;14.60;90.60
73576;DHT22;61859;49.204;8.140;2022-09-16T03:42:40;14.60;90.50
73576;DHT22;61859;49.204;8.140;2022-09-16T03:45:08;14.60;89.50
73576;DHT22;61859;49.204;8.140;2022-09-16T03:47:34;14.50;90.00
73576;DHT22;61859;49.204;8.140;2022-09-16T03:50:00;14.50;90.50
73576;DHT22;61859;49.204;8.140;2022-09-16T03:52:26;14.50;91.20
73576;DHT22;61859;49.204;8.140;2022-09-16T03:54:51;14.50;91.40
73576;DHT22;61859;49.204;8.140;2022-09-16T03:57:17;14.50;91.70
73576;DHT22;61859;49.204;8.140;2022-09-16T03:59:42;14.40;92.30
73576;DHT22;61859;49.204;8.140;2022-09-16T04:02:08;14.40;92.30
73576;DHT22;61859;49.204;8.140;2022-09-16T04:04:33;14.50;92.30
73576;DHT22;61859;49.204;8.140;2022-09-16T04:06:59;14.50;92.50
73576;DHT22;61859;49.204;8.140;2022-09-16T04:09:24;14.50;92.60
73576;DHT22;61859;49.204;8.140;2022-09-16T04:11:50;14.40;92.50
73576;DHT22;61859;49.204;8.140;2022-09-16T04:14:15;14.40;92.20
73576;DHT22;61859;49.204;8.140;2022-09-16T04:16:41;14.30;92.70
73576;DHT22;61859;49.204;8.140;2022-09-16T04:19:06;14.30;92.80
73576;DHT22;61859;49.204;8.140;2022-09-16T04:21:32;14.20;92.60
73576;DHT22;61859;49.204;8.140;2022-09-16T04:23:58;14.20;93.60
73576;DHT22;61859;49.204;8.140;2022-09-16T04:26:24;14.10;94.10
73576;DHT22;61859;49.204;8.140;2022-09-16T04:28:52;14.00;94.70
73576;DHT22;61859;49.204;8.140;2022-09-16T04:31:18;14.00;95.20
73576;DHT22;61859;49.204;8.140;2022-09-16T04:33:44;13.90;95.90
73576;DHT22;61859;49.204;8.140;2022-09-16T04:36:12;13.80;96.60
73576;DHT22;61859;49.204;8.140;2022-09-16T04:38:39;13.80;96.80
73576;DHT22;61859;49.204;8.140;2022-09-16T04:41:09;13.80;97.20
73576;DHT22;61859;49.204;8.140;2022-09-16T04:43:35;13.80;97.30
73576;DHT22;61859;49.204;8.140;2022-09-16T04:46:01;13.80;97.40
73576;DHT22;61859;49.204;8.140;2022-09-16T04:48:27;13.80;97.50
73576;DHT22;61859;49.204;8.140;2022-09-16T04:50:53;13.80;97.30
73576;DHT22;61859;49.204;8.140;2022-09-16T04:53:19;13.80;97.30
73576;DHT22;61859;49.204;8.140;2022-09-16T04:55:46;13.80;97.70
73576;DHT22;61859;49.204;8.140;2022-09-16T04:58:12;13.80;98.00
73576;DHT22;61859;49.204;8.140;2022-09-16T05:00:38;13.70;98.30
73576;DHT22;61859;49.204;8.140;2022-09-16T05:03:04;13.90;98.30
73576;DHT22;61859;49.204;8.140;2022-09-16T05:05:29;13.90;98.30
73576;DHT22;61859;49.204;8.140;2022-09-16T05:07:55;13.80;98.40
73576;DHT22;61859;49.204;8.140;2022-09-16T05:10:21;14.00;98.50
73576;DHT22;61859;49.204;8.140;2022-09-16T05:12:53;13.90;98.50
73576;DHT22;61859;49.204;8.140;2022-09-16T05:15:19;13.90;98.50
73576;DHT22;61859;49.204;8.140;2022-09-16T05:17:45;13.80;98.40
73576;DHT22;61859;49.204;8.140;2022-09-16T05:20:11;13.80;98.40
73576;DHT22;61859;49.204;8.140;2022-09-16T05:22:37;13.80;98.30
73576;DHT22;61859;49.204;8.140;2022-09-16T05:25:03;13.90;98.60
73576;DHT22;61859;49.204;8.140;2022-09-16T05:27:30;13.80;98.60
73576;DHT22;61859;49.204;8.140;2022-09-16T05:29:56;13.90;98.90
73576;DHT22;61859;49.204;8.140;2022-09-16T05:32:21;13.90;98.50
73576;DHT22;61859;49.204;8.140;2022-09-16T05:34:47;13.90;98.50
73576;DHT22;61859;49.204;8.140;2022-09-16T05:37:13;13.90;98.70
73576;DHT22;61859;49.204;8.140;2022-09-16T05:39:39;13.80;98.60
73576;DHT22;61859;49.204;8.140;2022-09-16T05:42:05;13.80;98.40
73576;DHT22;61859;49.204;8.140;2022-09-16T05:44:30;13.80;98.40
73576;DHT22;61859;49.204;8.140;2022-09-16T05:46:56;13.80;98.70
73576;DHT22;61859;49.204;8.140;2022-09-16T05:49:22;13.70;99.00
73576;DHT22;61859;49.204;8.140;2022-09-16T05:51:48;13.70;98.80
73576;DHT22;61859;49.204;8.140;2022-09-16T05:54:15;13.70;98.90
73576;DHT22;61859;49.204;8.140;2022-09-16T05:56:42;13.80;99.10
73576;DHT22;61859;49.204;8.140;2022-09-16T05:59:10;13.80;99.20
73576;DHT22;61859;49.204;8.140;2022-09-16T06:01:36;13.80;99.20
73576;DHT22;61859;49.204;8.140;2022-09-16T06:04:05;13.80;99.10
73576;DHT22;61859;49.204;8.140;2022-09-16T06:06:34;13.80;99.10
73576;DHT22;61859;49.204;8.140;2022-09-16T06:09:07;13.90;99.20
73576;DHT22;61859;49.204;8.140;2022-09-16T06:11:36;13.90;99.30
73576;DHT22;61859;49.204;8.140;2022-09-16T06:14:02;13.90;98.90
73576;DHT22;61859;49.204;8.140;2022-09-16T06:16:29;14.00;97.90
73576;DHT22;61859;49.204;8.140;2022-09-16T06:19:02;13.90;98.40
73576;DHT22;61859;49.204;8.140;2022-09-16T06:21:29;14.00;97.80
73576;DHT22;61859;49.204;8.140;2022-09-16T06:23:55;14.00;96.60
73576;DHT22;61859;49.204;8.140;2022-09-16T06:26:24;13.90;96.90
73576;DHT22;61859;49.204;8.140;2022-09-16T06:28:50;14.10;97.00
73576;DHT22;61859;49.204;8.140;2022-09-16T06:31:25;13.90;97.20
73576;DHT22;61859;49.204;8.140;2022-09-16T06:33:52;14.00;97.70
73576;DHT22;61859;49.204;8.140;2022-09-16T06:36:20;14.10;97.80
73576;DHT22;61859;49.204;8.140;2022-09-16T06:38:46;14.10;97.20
73576;DHT22;61859;49.204;8.140;2022-09-16T06:41:13;14.20;97.70
73576;DHT22;61859;49.204;8.140;2022-09-16T06:43:40;14.20;97.60
73576;DHT22;61859;49.204;8.140;2022-09-16T06:46:11;14.20;97.50
73576;DHT22;61859;49.204;8.140;2022-09-16T06:48:48;14.30;97.20
73576;DHT22;61859;49.204;8.140;2022-09-16T06:51:17;14.30;97.10
73576;DHT22;61859;49.204;8.140;2022-09-16T06:53:44;14.30;96.50
73576;DHT22;61859;49.204;8.140;2022-09-16T06:56:12;14.30;96.50
73576;DHT22;61859;49.204;8.140;2022-09-16T06:58:40;14.20;96.70
73576;DHT22;61859;49.204;8.140;2022-09-16T07:01:08;14.30;96.30
73576;DHT22;61859;49.204;8.140;2022-09-16T07:03:37;14.40;95.70
73576;DHT22;61859;49.204;8.140;2022-09-16T07:06:04;14.40;95.80
73576;DHT22;61859;49.204;8.140;2022-09-16T07:08:34;14.30;96.20
73576;DHT22;61859;49.204;8.140;2022-09-16T07:11:15;14.40;96.00
73576;DHT22;61859;49.204;8.140;2022-09-16T07:13:41;14.40;96.60
73576;DHT22;61859;49.204;8.140;2022-09-16T07:16:12;14.40;95.70
73576;DHT22;61859;49.204;8.140;2022-09-16T07:18:39;14.50;95.50
73576;DHT22;61859;49.204;8.140;2022-09-16T07:23:37;14.50;95.10
73576;DHT22;61859;49.204;8.140;2022-09-16T07:26:05;14.50;94.70
73576;DHT22;61859;49.204;8.140;2022-09-16T07:28:32;14.50;94.80
73576;DHT22;61859;49.204;8.140;2022-09-16T07:31:02;14.60;94.70
73576;DHT22;61859;49.204;8.140;2022-09-16T07:33:35;14.60;95.10
73576;DHT22;61859;49.204;8.140;2022-09-16T07:36:02;14.60;95.80
73576;DHT22;61859;49.204;8.140;2022-09-16T07:38:30;14.80;95.90
73576;DHT22;61859;49.204;8.140;2022-09-16T07:41:03;14.80;94.60
73576;DHT22;61859;49.204;8.140;2022-09-16T07:43:29;14.90;94.50
73576;DHT22;61859;49.204;8.140;2022-09-16T07:45:56;15.00;94.20
73576;DHT22;61859;49.204;8.140;2022-09-16T07:48:22;15.00;94.20
73576;DHT22;61859;49.204;8.140;2022-09-16T07:50:57;15.00;94.80
73576;DHT22;61859;49.204;8.140;2022-09-16T07:53:24;15.10;95.20
73576;DHT22;61859;49.204;8.140;2022-09-16T07:55:55;15.10;94.50
73576;DHT22;61859;49.204;8.140;2022-09-16T07:58:21;15.20;94.90
73576;DHT22;61859;49.204;8.140;2022-09-16T08:00:48;15.20;94.90
73576;DHT22;61859;49.204;8.140;2022-09-16T08:03:14;15.20;94.70
73576;DHT22;61859;49.204;8.140;2022-09-16T08:05:40;15.30;94.60
73576;DHT22;61859;49.204;8.140;2022-09-16T08:08:06;15.20;94.80
73576;DHT22;61859;49.204;8.140;2022-09-16T08:10:32;15.20;95.00
73576;DHT22;61859;49.204;8.140;2022-09-16T08:12:57;15.30;93.30
73576;DHT22;61859;49.204;8.140;2022-09-16T08:15:23;15.40;91.50
73576;DHT22;61859;49.204;8.140;2022-09-16T08:17:48;15.40;90.10
73576;DHT22;61859;49.204;8.140;2022-09-16T08:20:14;15.30;88.90
73576;DHT22;61859;49.204;8.140;2022-09-16T08:22:40;15.50;87.60
73576;DHT22;61859;49.204;8.140;2022-09-16T08:25:06;15.50;87.70
73576;DHT22;61859;49.204;8.140;2022-09-16T08:27:34;15.60;88.30
73576;DHT22;61859;49.204;8.140;2022-09-16T08:30:00;15.70;87.50
73576;DHT22;61859;49.204;8.140;2022-09-16T08:32:26;15.80;87.90
73576;DHT22;61859;49.204;8.140;2022-09-16T08:34:51;15.80;86.50
73576;DHT22;61859;49.204;8.140;2022-09-16T08:37:17;15.90;87.20
73576;DHT22;61859;49.204;8.140;2022-09-16T08:39:43;15.90;84.80
73576;DHT22;61859;49.204;8.140;2022-09-16T08:42:28;15.80;85.70
73576;DHT22;61859;49.204;8.140;2022-09-16T08:50:23;15.70;85.80
73576;DHT22;61859;49.204;8.140;2022-09-16T08:52:50;15.70;85.40
73576;DHT22;61859;49.204;8.140;2022-09-16T08:55:27;15.70;83.80
73576;DHT22;61859;49.204;8.140;2022-09-16T09:00:26;15.80;85.10
73576;DHT22;61859;49.204;8.140;2022-09-16T09:03:18;15.80;84.70
73576;DHT22;61859;49.204;8.140;2022-09-16T09:05:51;15.90;85.40
73576;DHT22;61859;49.204;8.140;2022-09-16T09:08:39;15.90;82.90
73576;DHT22;61859;49.204;8.140;2022-09-16T09:16:46;16.10;84.20
73576;DHT22;61859;49.204;8.140;2022-09-16T09:19:44;16.20;81.50
73576;DHT22;61859;49.204;8.140;2022-09-16T09:22:43;16.10;82.20
73576;DHT22;61859;49.204;8.140;2022-09-16T09:25:27;16.10;83.40
73576;DHT22;61859;49.204;8.140;2022-09-16T09:28:18;16.30;81.60
73576;DHT22;61859;49.204;8.140;2022-09-16T09:33:51;16.30;77.00
73576;DHT22;61859;49.204;8.140;2022-09-16T09:36:30;16.40;78.80
73576;DHT22;61859;49.204;8.140;2022-09-16T09:39:29;16.50;76.40
73576;DHT22;61859;49.204;8.140;2022-09-16T09:41:58;16.60;76.10
73576;DHT22;61859;49.204;8.140;2022-09-16T09:47:06;17.00;75.40
73576;DHT22;61859;49.204;8.140;2022-09-16T09:49:33;17.30;73.70
73576;DHT22;61859;49.204;8.140;2022-09-16T09:52:15;17.90;71.30
73576;DHT22;61859;49.204;8.140;2022-09-16T09:54:45;18.30;72.60
73576;DHT22;61859;49.204;8.140;2022-09-16T09:57:31;18.60;68.10
73576;DHT22;61859;49.204;8.140;2022-09-16T10:02:42;18.70;67.00
73576;DHT22;61859;49.204;8.140;2022-09-16T10:05:28;18.60;61.40
73576;DHT22;61859;49.204;8.140;2022-09-16T10:08:14;18.40;60.70
73576;DHT22;61859;49.204;8.140;2022-09-16T10:10:50;18.20;61.20
73576;DHT22;61859;49.204;8.140;2022-09-16T10:13:17;18.10;62.90
73576;DHT22;61859;49.204;8.140;2022-09-16T10:15:44;18.20;63.10
73576;DHT22;61859;49.204;8.140;2022-09-16T10:18:25;18.30;58.50
73576;DHT22;61859;49.204;8.140;2022-09-16T10:21:12;18.40;60.00
73576;DHT22;61859;49.204;8.140;2022-09-16T10:23:38;18.50;59.90
73576;DHT22;61859;49.204;8.140;2022-09-16T10:26:22;18.60;59.00
73576;DHT22;61859;49.204;8.140;2022-09-16T10:29:16;18.70;56.60
73576;DHT22;61859;49.204;8.140;2022-09-16T10:31:40;18.70;58.20
73576;DHT22;61859;49.204;8.140;2022-09-16T10:37:02;18.50;56.80
73576;DHT22;61859;49.204;8.140;2022-09-16T10:39:29;18.60;60.20
73576;DHT22;61859;49.204;8.140;2022-09-16T10:41:55;19.00;63.30
73576;DHT22;61859;49.204;8.140;2022-09-16T10:44:22;19.60;57.40
73576;DHT22;61859;49.204;8.140;2022-09-16T10:46:53;20.40;57.80
73576;DHT22;61859;49.204;8.140;2022-09-16T10:49:28;21.10;51.40
73576;DHT22;61859;49.204;8.140;2022-09-16T10:52:07;21.30;53.50
73576;DHT22;61859;49.204;8.140;2022-09-16T10:54:33;21.60;51.40
73576;DHT22;61859;49.204;8.140;2022-09-16T10:56:59;21.40;52.90
73576;DHT22;61859;49.204;8.140;2022-09-16T10:59:24;21.30;52.50
73576;DHT22;61859;49.204;8.140;2022-09-16T11:10:57;21.70;50.70
73576;DHT22;61859;49.204;8.140;2022-09-16T11:13:47;22.20;47.70
73576;DHT22;61859;49.204;8.140;2022-09-16T11:16:43;22.40;47.60
73576;DHT22;61859;49.204;8.140;2022-09-16T11:25:05;22.50;46.70
73576;DHT22;61859;49.204;8.140;2022-09-16T11:27:47;22.30;47.10
73576;DHT22;61859;49.204;8.140;2022-09-16T11:30:20;22.00;48.40
73576;DHT22;61859;49.204;8.140;2022-09-16T11:41:13;20.50;50.50
73576;DHT22;61859;49.204;8.140;2022-09-16T11:46:27;20.30;52.10
73576;DHT22;61859;49.204;8.140;2022-09-16T11:54:19;20.00;52.90
73576;DHT22;61859;49.204;8.140;2022-09-16T11:56:50;20.00;53.40
73576;DHT22;61859;49.204;8.140;2022-09-16T12:07:35;19.30;53.50
73576;DHT22;61859;49.204;8.140;2022-09-16T12:13:04;19.90;53.90
73576;DHT22;61859;49.204;8.140;2022-09-16T12:16:01;20.40;52.60
73576;DHT22;61859;49.204;8.140;2022-09-16T12:18:35;21.40;51.10
73576;DHT22;61859;49.204;8.140;2022-09-16T12:23:35;22.10;44.70
73576;DHT22;61859;49.204;8.140;2022-09-16T12:26:10;22.20;46.00
73576;DHT22;61859;49.204;8.140;2022-09-16T12:28:44;22.30;44.70
73576;DHT22;61859;49.204;8.140;2022-09-16T12:31:22;22.10;44.30
73576;DHT22;61859;49.204;8.140;2022-09-16T12:33:56;22.10;44.30
73576;DHT22;61859;49.204;8.140;2022-09-16T12:36:28;21.70;45.60
73576;DHT22;61859;49.204;8.140;2022-09-16T12:38:59;21.40;46.80
73576;DHT22;61859;49.204;8.140;2022-09-16T12:41:36;21.40;46.80
73576;DHT22;61859;49.204;8.140;2022-09-16T12:52:38;22.20;44.30
73576;DHT22;61859;49.204;8.140;2022-09-16T12:58:11;21.10;45.70
73576;DHT22;61859;49.204;8.140;2022-09-16T13:01:17;20.70;47.90
73576;DHT22;61859;49.204;8.140;2022-09-16T13:03:51;20.30;49.30
73576;DHT22;61859;49.204;8.140;2022-09-16T13:06:28;20.00;49.40
73576;DHT22;61859;49.204;8.140;2022-09-16T13:08:56;19.80;50.00
73576;DHT22;61859;49.204;8.140;2022-09-16T13:11:26;19.60;53.10
73576;DHT22;61859;49.204;8.140;2022-09-16T13:13:54;19.50;52.80
73576;DHT22;61859;49.204;8.140;2022-09-16T13:16:29;19.40;53.10
73576;DHT22;61859;49.204;8.140;2022-09-16T13:21:47;19.20;56.10
73576;DHT22;61859;49.204;8.140;2022-09-16T13:24:35;19.30;56.10
73576;DHT22;61859;49.204;8.140;2022-09-16T13:27:33;19.20;54.20
73576;DHT22;61859;49.204;8.140;2022-09-16T13:37:46;20.30;53.40
73576;DHT22;61859;49.204;8.140;2022-09-16T13:40:23;21.10;51.10
73576;DHT22;61859;49.204;8.140;2022-09-16T13:42:49;22.00;51.00
73576;DHT22;61859;49.204;8.140;2022-09-16T13:48:05;23.50;45.60
73576;DHT22;61859;49.204;8.140;2022-09-16T13:50:34;23.70;44.10
73576;DHT22;61859;49.204;8.140;2022-09-16T13:53:09;23.20;41.00
73576;DHT22;61859;49.204;8.140;2022-09-16T13:55:36;22.30;42.70
73576;DHT22;61859;49.204;8.140;2022-09-16T13:58:28;21.80;43.40
73576;DHT22;61859;49.204;8.140;2022-09-16T14:01:09;21.00;45.10
73576;DHT22;61859;49.204;8.140;2022-09-16T14:06:40;19.90;48.40
73576;DHT22;61859;49.204;8.140;2022-09-16T14:12:17;19.70;50.10
73576;DHT22;61859;49.204;8.140;2022-09-16T14:14:45;19.50;51.40
73576;DHT22;61859;49.204;8.140;2022-09-16T14:17:18;19.50;51.30
73576;DHT22;61859;49.204;8.140;2022-09-16T14:19:45;19.50;52.30
73576;DHT22;61859;49.204;8.140;2022-09-16T14:22:18;19.50;52.80
73576;DHT22;61859;49.204;8.140;2022-09-16T14:24:46;19.50;50.30
73576;DHT22;61859;49.204;8.140;2022-09-16T14:27:29;19.50;49.10
73576;DHT22;61859;49.204;8.140;2022-09-16T14:30:00;19.50;49.90
73576;DHT22;61859;49.204;8.140;2022-09-16T14:32:31;19.30;48.90
73576;DHT22;61859;49.204;8.140;2022-09-16T14:35:00;19.30;49.30
73576;DHT22;61859;49.204;8.140;2022-09-16T14:37:28;19.30;50.40
73576;DHT22;61859;49.204;8.140;2022-09-16T14:40:02;19.10;50.40
73576;DHT22;61859;49.204;8.140;2022-09-16T14:42:28;19.00;52.90
73576;DHT22;61859;49.204;8.140;2022-09-16T14:44:55;18.90;53.90
73576;DHT22;61859;49.204;8.140;2022-09-16T14:47:31;18.80;54.60
73576;DHT22;61859;49.204;8.140;2022-09-16T14:50:10;18.80;55.00
73576;DHT22;61859;49.204;8.140;2022-09-16T14:52:37;18.70;52.80
73576;DHT22;61859;49.204;8.140;2022-09-16T14:55:30;18.70;53.50
73576;DHT22;61859;49.204;8.140;2022-09-16T14:57:58;18.50;53.70
73576;DHT22;61859;49.204;8.140;2022-09-16T15:00:27;18.50;53.70
73576;DHT22;61859;49.204;8.140;2022-09-16T15:02:59;18.30;54.60
73576;DHT22;61859;49.204;8.140;2022-09-16T15:05:37;18.30;55.10
73576;DHT22;61859;49.204;8.140;2022-09-16T15:08:11;18.00;57.40
73576;DHT22;61859;49.204;8.140;2022-09-16T15:10:38;17.90;58.00
73576;DHT22;61859;49.204;8.140;2022-09-16T15:13:11;17.70;60.70
73576;DHT22;61859;49.204;8.140;2022-09-16T15:16:06;17.60;58.80
73576;DHT22;61859;49.204;8.140;2022-09-16T15:18:37;17.50;61.80
73576;DHT22;61859;49.204;8.140;2022-09-16T15:21:06;17.30;65.60
73576;DHT22;61859;49.204;8.140;2022-09-16T15:23:34;17.10;67.50
73576;DHT22;61859;49.204;8.140;2022-09-16T15:26:17;17.00;66.80
73576;DHT22;61859;49.204;8.140;2022-09-16T15:28:59;16.90;68.00
73576;DHT22;61859;49.204;8.140;2022-09-16T15:31:32;16.70;67.70
73576;DHT22;61859;49.204;8.140;2022-09-16T15:34:01;16.80;66.10
73576;DHT22;61859;49.204;8.140;2022-09-16T15:36:40;16.70;66.90
73576;DHT22;61859;49.204;8.140;2022-09-16T15:39:29;16.70;64.00
73576;DHT22;61859;49.204;8.140;2022-09-16T15:42:21;16.70;65.70
73576;DHT22;61859;49.204;8.140;2022-09-16T15:44:57;16.60;64.20
73576;DHT22;61859;49.204;8.140;2022-09-16T15:47:26;16.60;64.20
73576;DHT22;61859;49.204;8.140;2022-09-16T15:50:08;16.50;64.20
73576;DHT22;61859;49.204;8.140;2022-09-16T15:52:50;16.40;64.40
73576;DHT22;61859;49.204;8.140;2022-09-16T15:55:35;16.40;61.70
73576;DHT22;61859;49.204;8.140;2022-09-16T15:58:33;16.30;61.60
73576;DHT22;61859;49.204;8.140;2022-09-16T16:03:21;16.30;63.30
73576;DHT22;61859;49.204;8.140;2022-09-16T16:05:52;16.30;63.00
73576;DHT22;61859;49.204;8.140;2022-09-16T16:08:47;16.40;64.20
73576;DHT22;61859;49.204;8.140;2022-09-16T16:11:16;16.40;62.90
73576;DHT22;61859;49.204;8.140;2022-09-16T16:13:42;16.40;62.60
73576;DHT22;61859;49.204;8.140;2022-09-16T16:16:08;16.30;63.70
73576;DHT22;61859;49.204;8.140;2022-09-16T16:18:35;16.30;62.20
73576;DHT22;61859;49.204;8.140;2022-09-16T16:21:12;16.30;63.00
73576;DHT22;61859;49.204;8.140;2022-09-16T16:23:38;16.50;64.00
73576;DHT22;61859;49.204;8.140;2022-09-16T16:26:05;16.80;63.40
73576;DHT22;61859;49.204;8.140;2022-09-16T16:28:31;16.90;60.90
73576;DHT22;61859;49.204;8.140;2022-09-16T16:31:12;16.90;61.90
73576;DHT22;61859;49.204;8.140;2022-09-16T16:33:40;16.90;61.20
73576;DHT22;61859;49.204;8.140;2022-09-16T16:36:07;16.90;61.30
73576;DHT22;61859;49.204;8.140;2022-09-16T16:38:32;16.80;61.10
73576;DHT22;61859;49.204;8.140;2022-09-16T16:40:58;16.70;62.20
73576;DHT22;61859;49.204;8.140;2022-09-16T16:43:23;16.60;63.00
73576;DHT22;61859;49.204;8.140;2022-09-16T16:45:56;16.50;64.60
73576;DHT22;61859;49.204;8.140;2022-09-16T16:48:22;16.40;64.50
73576;DHT22;61859;49.204;8.140;2022-09-16T16:50:59;16.30;65.50
73576;DHT22;61859;49.204;8.140;2022-09-16T16:53:26;16.20;66.20
73576;DHT22;61859;49.204;8.140;2022-09-16T16:55:51;16.20;67.30
73576;DHT22;61859;49.204;8.140;2022-09-16T16:58:17;16.10;66.50
73576;DHT22;61859;49.204;8.140;2022-09-16T17:00:43;16.00;67.00
73576;DHT22;61859;49.204;8.140;2022-09-16T17:03:08;16.00;66.10
73576;DHT22;61859;49.204;8.140;2022-09-16T17:05:34;15.90;66.10
73576;DHT22;61859;49.204;8.140;2022-09-16T17:07:59;15.90;68.10
73576;DHT22;61859;49.204;8.140;2022-09-16T17:10:25;15.80;68.50
73576;DHT22;61859;49.204;8.140;2022-09-16T17:12:50;15.90;66.90
73576;DHT22;61859;49.204;8.140;2022-09-16T17:15:16;15.80;68.40
73576;DHT22;61859;49.204;8.140;2022-09-16T17:17:41;15.70;69.20
73576;DHT22;61859;49.204;8.140;2022-09-16T17:20:07;15.50;72.10
73576;DHT22;61859;49.204;8.140;2022-09-16T17:22:33;15.20;75.50
73576;DHT22;61859;49.204;8.140;2022-09-16T17:24:58;14.90;79.60
73576;DHT22;61859;49.204;8.140;2022-09-16T17:27:24;14.70;81.30
73576;DHT22;61859;49.204;8.140;2022-09-16T17:29:52;14.40;82.30
73576;DHT22;61859;49.204;8.140;2022-09-16T17:32:17;14.30;83.30
73576;DHT22;61859;49.204;8.140;2022-09-16T17:34:43;14.10;84.30
73576;DHT22;61859;49.204;8.140;2022-09-16T17:37:09;13.90;85.80
73576;DHT22;61859;49.204;8.140;2022-09-16T17:39:34;13.80;86.10
73576;DHT22;61859;49.204;8.140;2022-09-16T17:42:00;13.60;86.80
73576;DHT22;61859;49.204;8.140;2022-09-16T17:44:25;13.50;86.60
73576;DHT22;61859;49.204;8.140;2022-09-16T17:46:51;13.40;87.90
73576;DHT22;61859;49.204;8.140;2022-09-16T17:49:21;13.40;86.60
73576;DHT22;61859;49.204;8.140;2022-09-16T17:51:49;13.30;86.60
73576;DHT22;61859;49.204;8.140;2022-09-16T17:54:15;13.20;87.40
73576;DHT22;61859;49.204;8.140;2022-09-16T17:56:40;13.30;87.40
73576;DHT22;61859;49.204;8.140;2022-09-16T17:59:12;13.20;87.20
73576;DHT22;61859;49.204;8.140;2022-09-16T18:01:38;13.30;87.60
73576;DHT22;61859;49.204;8.140;2022-09-16T18:04:04;13.20;87.00
73576;DHT22;61859;49.204;8.140;2022-09-16T18:06:32;13.20;86.50
73576;DHT22;61859;49.204;8.140;2022-09-16T18:09:01;13.30;86.60
73576;DHT22;61859;49.204;8.140;2022-09-16T18:11:26;13.20;86.40
73576;DHT22;61859;49.204;8.140;2022-09-16T18:13:57;13.20;86.30
73576;DHT22;61859;49.204;8.140;2022-09-16T18:16:23;13.20;85.40
73576;DHT22;61859;49.204;8.140;2022-09-16T18:18:53;13.10;86.20
73576;DHT22;61859;49.204;8.140;2022-09-16T18:21:20;13.10;86.00
73576;DHT22;61859;49.204;8.140;2022-09-16T18:23:47;13.10;85.90
73576;DHT22;61859;49.204;8.140;2022-09-16T18:26:16;13.10;86.50
73576;DHT22;61859;49.204;8.140;2022-09-16T18:28:44;13.10;85.30